createdAt,value
2018-08-22T00:01:01.216Z,57.38
2018-08-22T00:03:28.867Z,58.18
2018-08-22T00:05:56.446Z,57.88
2018-08-22T00:08:29.621Z,57.86
2018-08-22T00:10:57.116Z,57.86
2018-08-22T00:13:24.756Z,57.84
2018-08-22T00:15:52.404Z,57.20
2018-08-22T00:18:19.068Z,57.03
2018-08-22T00:20:46.732Z,57.39
2018-08-22T00:23:15.853Z,57.77
2018-08-22T00:25:43.044Z,57.77
2018-08-22T00:28:10.548Z,57.50
2018-08-22T00:30:37.192Z,57.86
2018-08-22T00:33:04.795Z,57.06
2018-08-22T00:35:31.420Z,57.55
2018-08-22T00:37:58.052Z,57.63
2018-08-22T00:40:24.688Z,57.38
2018-08-22T00:42:51.345Z,56.82
2018-08-22T00:45:17.986Z,57.23
2018-08-22T00:47:45.265Z,56.77
2018-08-22T00:50:13.777Z,56.72
2018-08-22T00:52:40.420Z,57.56
2018-08-22T00:55:07.922Z,56.80
2018-08-22T00:57:35.541Z,56.81
2018-08-22T01:00:03.020Z,57.64
2018-08-22T01:02:30.644Z,57.70
2018-08-22T01:04:58.280Z,56.81
2018-08-22T01:07:25.748Z,56.54
2018-08-22T01:09:52.389Z,57.43
2018-08-22T01:12:19.948Z,56.84
2018-08-22T01:14:47.572Z,56.63
2018-08-22T01:17:16.032Z,56.95
2018-08-22T01:19:46.223Z,56.63
2018-08-22T01:22:13.815Z,57.43
2018-08-22T01:24:41.352Z,56.75
2018-08-22T01:27:11.609Z,57.38
2018-08-22T01:29:39.168Z,56.93
2018-08-22T01:32:06.771Z,56.77
2018-08-22T01:34:34.373Z,56.93
2018-08-22T01:37:01.008Z,56.71
2018-08-22T01:39:28.473Z,56.67
2018-08-22T01:41:55.956Z,56.75
2018-08-22T01:44:23.547Z,56.84
2018-08-22T01:46:50.199Z,56.99
2018-08-22T01:49:16.832Z,57.44
2018-08-22T01:51:45.644Z,57.30
2018-08-22T01:54:13.217Z,57.25
2018-08-22T01:56:40.054Z,57.31
2018-08-22T01:59:06.776Z,56.42
2018-08-22T02:01:33.419Z,56.40
2018-08-22T02:04:00.051Z,56.45
2018-08-22T02:06:26.687Z,56.93
2018-08-22T02:08:53.323Z,57.23
2018-08-22T02:11:19.969Z,56.93
2018-08-22T02:13:47.051Z,56.35
2018-08-22T02:16:15.268Z,57.05
2018-08-22T02:18:43.960Z,57.10
2018-08-22T02:21:11.636Z,56.24
2018-08-22T02:23:39.257Z,56.83
2018-08-22T02:26:06.828Z,56.18
2018-08-22T02:28:34.428Z,56.50
2018-08-22T02:31:02.025Z,57.12
2018-08-22T02:33:29.704Z,57.01
2018-08-22T02:35:57.294Z,57.05
2018-08-22T02:38:25.506Z,56.99
2018-08-22T02:40:54.112Z,56.73
2018-08-22T02:43:21.576Z,56.72
2018-08-22T02:45:49.043Z,56.88
2018-08-22T02:48:17.104Z,56.86
2018-08-22T02:50:46.320Z,56.09
2018-08-22T02:53:13.912Z,56.92
2018-08-22T02:55:40.984Z,56.95
2018-08-22T02:58:09.173Z,56.81
2018-08-22T03:00:35.840Z,56.26
2018-08-22T03:03:02.480Z,56.13
2018-08-22T03:05:29.129Z,56.82
2018-08-22T03:07:55.785Z,56.83
2018-08-22T03:10:22.421Z,56.86
2018-08-22T03:12:49.064Z,56.07
2018-08-22T03:15:16.777Z,56.02
2018-08-22T03:17:44.180Z,56.80
2018-08-22T03:20:11.759Z,56.04
2018-08-22T03:22:38.421Z,56.61
2018-08-22T03:25:06.028Z,56.55
2018-08-22T03:27:32.688Z,55.84
2018-08-22T03:30:00.344Z,55.87
2018-08-22T03:32:27.954Z,56.72
2018-08-22T03:34:55.620Z,56.88
2018-08-22T03:37:23.322Z,56.55
2018-08-22T03:39:50.868Z,56.30
2018-08-22T03:42:18.487Z,56.00
2018-08-22T03:44:47.616Z,56.78
2018-08-22T03:47:16.612Z,56.43
2018-08-22T03:49:44.168Z,56.04
2018-08-22T03:52:11.859Z,56.80
2018-08-22T03:54:39.424Z,56.71
2018-08-22T03:57:07.016Z,56.81
2018-08-22T03:59:34.712Z,56.52
2018-08-22T04:02:02.521Z,56.61
2018-08-22T04:04:29.885Z,56.79
2018-08-22T04:06:56.582Z,56.46
2018-08-22T04:09:24.232Z,56.67
2018-08-22T04:11:50.888Z,55.68
2018-08-22T04:14:18.441Z,55.96
2018-08-22T04:16:47.600Z,56.52
2018-08-22T04:19:16.196Z,56.51
2018-08-22T04:21:45.832Z,56.64
2018-08-22T04:24:13.956Z,56.74
2018-08-22T04:26:42.553Z,56.72
2018-08-22T04:29:09.989Z,56.35
2018-08-22T04:31:37.640Z,55.86
2018-08-22T04:34:05.104Z,56.61
2018-08-22T04:36:32.772Z,55.96
2018-08-22T04:39:00.349Z,56.71
2018-08-22T04:41:27.972Z,55.95
2018-08-22T04:43:55.612Z,55.86
2018-08-22T04:46:23.208Z,55.84
2018-08-22T04:48:50.764Z,56.34
2018-08-22T04:51:18.349Z,56.63
2018-08-22T04:53:47.424Z,56.72
2018-08-22T04:56:16.367Z,56.62
2018-08-22T04:58:43.864Z,56.54
2018-08-22T05:01:11.448Z,56.49
2018-08-22T05:03:39.057Z,56.48
2018-08-22T05:06:06.699Z,55.94
2018-08-22T05:08:34.225Z,56.70
2018-08-22T05:11:01.804Z,56.63
2018-08-22T05:13:29.418Z,56.51
2018-08-22T05:15:56.140Z,56.73
2018-08-22T05:18:23.624Z,56.58
2018-08-22T05:20:51.198Z,56.70
2018-08-22T05:23:18.811Z,56.54
2018-08-22T05:25:46.492Z,56.42
2018-08-22T05:28:14.117Z,56.08
2018-08-22T05:30:40.760Z,55.83
2018-08-22T05:33:07.420Z,56.32
2018-08-22T05:35:34.080Z,56.52
2018-08-22T05:38:00.733Z,56.52
2018-08-22T05:40:27.364Z,56.72
2018-08-22T05:42:54.009Z,55.58
2018-08-22T05:45:20.648Z,55.62
2018-08-22T05:47:47.306Z,56.68
2018-08-22T05:50:15.481Z,55.58
2018-08-22T05:52:44.013Z,56.41
2018-08-22T05:55:11.456Z,56.49
2018-08-22T05:57:39.112Z,55.64
2018-08-22T06:00:06.714Z,56.74
2018-08-22T06:02:34.340Z,56.29
2018-08-22T06:05:01.989Z,56.29
2018-08-22T06:07:28.843Z,55.77
2018-08-22T06:09:56.413Z,56.08
2018-08-22T06:12:24.072Z,56.08
2018-08-22T06:14:51.876Z,56.11
2018-08-22T06:17:19.724Z,56.07
2018-08-22T06:19:47.604Z,56.17
2018-08-22T06:22:16.506Z,56.31
2018-08-22T06:24:43.802Z,56.27
2018-08-22T06:27:10.440Z,55.37
2018-08-22T06:29:37.077Z,55.69
2018-08-22T06:32:03.712Z,56.13
2018-08-22T06:34:30.362Z,55.52
2018-08-22T06:36:57.012Z,56.46
2018-08-22T06:39:23.665Z,55.55
2018-08-22T06:41:50.305Z,56.39
2018-08-22T06:44:17.412Z,55.77
2018-08-22T06:46:44.976Z,54.77
2018-08-22T06:49:11.633Z,54.87
2018-08-22T06:51:39.081Z,55.97
2018-08-22T06:54:05.741Z,56.00
2018-08-22T06:56:32.384Z,56.12
2018-08-22T06:58:59.052Z,55.48
2018-08-22T07:01:26.521Z,54.96
2018-08-22T07:03:53.202Z,54.80
2018-08-22T07:06:20.831Z,54.62
2018-08-22T07:08:47.575Z,53.62
2018-08-22T07:11:16.280Z,55.51
2018-08-22T07:13:43.931Z,54.45
2018-08-22T07:16:11.593Z,55.26
2018-08-22T07:18:39.188Z,56.30
2018-08-22T07:21:06.829Z,55.85
2018-08-22T07:23:34.509Z,55.09
2018-08-22T07:26:02.080Z,56.63
2018-08-22T07:28:29.724Z,57.10
2018-08-22T07:30:57.315Z,56.50
2018-08-22T07:33:24.890Z,56.56
2018-08-22T07:35:52.552Z,57.06
2018-08-22T07:38:20.173Z,58.39
2018-08-22T07:40:47.792Z,58.08
2018-08-22T07:43:16.693Z,58.03
2018-08-22T07:45:44.321Z,57.58
2018-08-22T07:48:11.968Z,57.97
2018-08-22T07:50:39.588Z,58.78
2018-08-22T07:53:07.200Z,58.82
2018-08-22T07:55:35.411Z,58.69
2018-08-22T07:58:03.045Z,57.95
2018-08-22T08:00:30.677Z,58.66
2018-08-22T08:02:58.561Z,58.77
2018-08-22T08:05:26.219Z,58.15
2018-08-22T08:07:53.637Z,58.10
2018-08-22T08:10:27.112Z,58.15
2018-08-22T08:12:54.576Z,59.09
2018-08-22T08:15:22.165Z,58.93
2018-08-22T08:17:49.824Z,58.88
2018-08-22T08:20:16.545Z,58.88
2018-08-22T08:22:44.124Z,59.03
2018-08-22T08:25:11.761Z,58.58
2018-08-22T08:27:39.369Z,58.27
2018-08-22T08:30:06.951Z,58.35
2018-08-22T08:32:33.584Z,58.31
2018-08-22T08:35:00.233Z,58.87
2018-08-22T08:37:26.878Z,58.51
2018-08-22T08:39:53.528Z,58.47
2018-08-22T08:42:20.185Z,58.90
2018-08-22T08:44:47.529Z,58.93
2018-08-22T08:47:15.909Z,58.98
2018-08-22T08:49:43.501Z,59.02
2018-08-22T08:52:10.165Z,59.20
2018-08-22T08:54:36.822Z,59.16
2018-08-22T08:57:04.453Z,59.15
2018-08-22T08:59:32.044Z,58.85
2018-08-22T09:01:59.624Z,58.63
2018-08-22T09:04:27.196Z,59.23
2018-08-22T09:06:54.888Z,58.44
2018-08-22T09:09:22.277Z,58.77
2018-08-22T09:11:55.708Z,59.41
2018-08-22T09:14:23.313Z,58.84
2018-08-22T09:16:50.924Z,59.40
2018-08-22T09:19:18.516Z,58.79
2018-08-22T09:21:46.911Z,59.49
2018-08-22T09:24:14.539Z,59.28
2018-08-22T09:26:43.435Z,59.58
2018-08-22T09:29:11.215Z,58.84
2018-08-22T09:31:38.884Z,58.76
2018-08-22T09:34:06.620Z,59.16
2018-08-22T09:36:34.408Z,59.75
2018-08-22T09:39:02.000Z,59.63
2018-08-22T09:41:29.444Z,59.40
2018-08-22T09:43:57.078Z,58.82
2018-08-22T09:46:24.694Z,59.57
2018-08-22T09:48:52.316Z,59.09
2018-08-22T09:51:19.909Z,59.85
2018-08-22T09:53:47.498Z,59.13
2018-08-22T09:56:15.932Z,59.79
2018-08-22T09:58:46.212Z,58.87
2018-08-22T10:01:20.791Z,59.00
2018-08-22T10:03:54.352Z,59.86
2018-08-22T10:06:28.014Z,59.30
2018-08-22T10:08:55.300Z,59.32
2018-08-22T10:11:22.854Z,59.56
2018-08-22T10:13:50.500Z,59.72
2018-08-22T10:16:18.076Z,59.89
2018-08-22T10:18:46.557Z,59.47
2018-08-22T10:21:14.094Z,59.76
2018-08-22T10:23:41.738Z,59.19
2018-08-22T10:26:09.304Z,59.05
2018-08-22T10:28:36.921Z,59.07
2018-08-22T10:31:04.591Z,60.06
2018-08-22T10:33:32.025Z,59.26
2018-08-22T10:35:59.581Z,59.43
2018-08-22T10:38:27.326Z,59.37
2018-08-22T10:40:55.268Z,60.23
2018-08-22T10:43:22.760Z,60.11
2018-08-22T10:45:51.045Z,59.24
2018-08-22T10:48:18.521Z,59.07
2018-08-22T10:50:46.463Z,59.77
2018-08-22T10:53:14.024Z,59.72
2018-08-22T10:55:40.664Z,59.48
2018-08-22T10:58:08.335Z,59.86
2018-08-22T11:00:34.979Z,59.29
2018-08-22T11:03:01.660Z,59.23
2018-08-22T11:05:28.331Z,59.45
2018-08-22T11:07:55.255Z,59.24
2018-08-22T11:10:21.896Z,59.41
2018-08-22T11:12:49.572Z,59.33
2018-08-22T11:15:17.221Z,59.43
2018-08-22T11:17:46.223Z,59.51
2018-08-22T11:20:15.541Z,59.63
2018-08-22T11:22:47.972Z,59.60
2018-08-22T11:25:20.405Z,59.52
2018-08-22T11:27:52.689Z,59.78
2018-08-22T11:30:25.081Z,59.79
2018-08-22T11:32:57.474Z,59.80
2018-08-22T11:35:23.661Z,59.80
2018-08-22T11:37:50.309Z,59.66
2018-08-22T11:40:16.964Z,59.94
2018-08-22T11:42:44.122Z,59.75
2018-08-22T11:45:10.758Z,59.59
2018-08-22T11:47:37.412Z,59.68
2018-08-22T11:50:04.044Z,60.28
2018-08-22T11:52:30.710Z,60.22
2018-08-22T11:54:59.128Z,59.93
2018-08-22T11:57:25.806Z,59.94
2018-08-22T11:59:53.356Z,59.48
2018-08-22T12:02:20.944Z,60.48
2018-08-22T12:04:48.520Z,60.01
2018-08-22T12:07:16.993Z,60.34
2018-08-22T12:09:45.268Z,60.51
2018-08-22T12:12:13.465Z,59.56
2018-08-22T12:14:40.924Z,60.34
2018-08-22T12:17:08.414Z,59.93
2018-08-22T12:19:36.077Z,60.02
2018-08-22T12:22:02.734Z,60.61
2018-08-22T12:24:30.412Z,59.65
2018-08-22T12:26:58.060Z,59.75
2018-08-22T12:29:25.489Z,59.85
2018-08-22T12:31:53.006Z,60.01
2018-08-22T12:34:20.585Z,59.74
2018-08-22T12:36:48.141Z,60.52
2018-08-22T12:39:15.749Z,59.77
2018-08-22T12:41:44.284Z,59.79
2018-08-22T12:44:11.859Z,60.57
2018-08-22T12:46:39.301Z,60.17
2018-08-22T12:49:06.993Z,60.64
2018-08-22T12:51:34.556Z,60.34
2018-08-22T12:54:02.235Z,59.74
2018-08-22T12:56:29.844Z,60.74
2018-08-22T12:58:57.496Z,60.48
2018-08-22T13:01:25.113Z,59.83
2018-08-22T13:03:52.796Z,60.58
2018-08-22T13:06:20.428Z,60.52
2018-08-22T13:08:48.043Z,60.80
2018-08-22T13:11:14.727Z,60.71
2018-08-22T13:13:43.293Z,60.42
2018-08-22T13:16:09.936Z,60.53
2018-08-22T13:18:36.576Z,59.84
2018-08-22T13:21:03.221Z,59.71
2018-08-22T13:23:29.857Z,59.94
2018-08-22T13:25:56.503Z,60.15
2018-08-22T13:28:24.081Z,59.84
2018-08-22T13:30:50.725Z,60.69
2018-08-22T13:33:17.368Z,60.46
2018-08-22T13:35:44.004Z,60.58
2018-08-22T13:38:10.665Z,60.28
2018-08-22T13:40:37.305Z,60.29
2018-08-22T13:43:03.960Z,59.85
2018-08-22T13:45:30.605Z,60.02
2018-08-22T13:47:57.240Z,60.70
2018-08-22T13:50:23.886Z,60.75
2018-08-22T13:52:50.542Z,60.08
2018-08-22T13:55:18.568Z,60.02
2018-08-22T13:57:46.740Z,59.85
2018-08-22T14:00:14.200Z,60.42
2018-08-22T14:02:41.840Z,60.39
2018-08-22T14:05:09.460Z,60.00
2018-08-22T14:07:37.060Z,60.77
2018-08-22T14:10:04.756Z,60.02
2018-08-22T14:12:32.300Z,60.92
2018-08-22T14:14:59.905Z,60.75
2018-08-22T14:17:27.492Z,60.55
2018-08-22T14:19:55.153Z,60.51
2018-08-22T14:22:22.832Z,60.92
2018-08-22T14:24:49.491Z,60.51
2018-08-22T14:27:17.189Z,60.18
2018-08-22T14:29:43.894Z,60.05
2018-08-22T14:32:11.324Z,59.94
2018-08-22T14:34:38.768Z,60.19
2018-08-22T14:37:05.501Z,61.11
2018-08-22T14:39:32.161Z,60.14
2018-08-22T14:41:58.808Z,60.60
2018-08-22T14:44:25.456Z,60.93
2018-08-22T14:46:52.110Z,60.08
2018-08-22T14:49:18.766Z,60.42
2018-08-22T14:51:46.836Z,60.33
2018-08-22T14:54:14.516Z,60.15
2018-08-22T14:56:43.864Z,60.10
2018-08-22T14:59:11.481Z,60.46
2018-08-22T15:01:38.964Z,60.35
2018-08-22T15:04:06.562Z,61.04
2018-08-22T15:06:34.233Z,61.08
2018-08-22T15:09:06.904Z,60.20
2018-08-22T15:11:35.638Z,60.98
2018-08-22T15:14:03.280Z,60.27
2018-08-22T15:16:31.308Z,60.24
2018-08-22T15:18:58.880Z,60.49
2018-08-22T15:21:26.516Z,60.49
2018-08-22T15:23:54.468Z,60.95
2018-08-22T15:26:22.538Z,60.53
2018-08-22T15:28:50.162Z,60.95
2018-08-22T15:31:18.013Z,60.27
2018-08-22T15:33:46.796Z,60.95
2018-08-22T15:36:14.587Z,60.03
2018-08-22T15:38:42.068Z,60.42
2018-08-22T15:41:09.755Z,60.83
2018-08-22T15:43:37.379Z,61.03
2018-08-22T15:46:05.117Z,60.97
2018-08-22T15:48:32.789Z,60.19
2018-08-22T15:51:00.907Z,60.32
2018-08-22T15:53:28.585Z,60.71
2018-08-22T15:55:56.054Z,60.32
2018-08-22T15:58:23.624Z,60.31
2018-08-22T16:00:52.588Z,60.15
2018-08-22T16:03:20.632Z,60.31
2018-08-22T16:05:49.180Z,60.63
2018-08-22T16:08:16.729Z,60.25
2018-08-22T16:10:44.183Z,60.45
2018-08-22T16:13:17.721Z,60.31
2018-08-22T16:15:46.939Z,61.28
2018-08-22T16:18:16.721Z,60.40
2018-08-22T16:20:50.992Z,61.16
2018-08-22T16:23:18.468Z,60.34
2018-08-22T16:25:48.177Z,60.31
2018-08-22T16:28:14.851Z,60.79
2018-08-22T16:30:43.933Z,60.99
2018-08-22T16:33:11.478Z,61.17
2018-08-22T16:35:38.976Z,60.29
2018-08-22T16:38:13.724Z,61.17
2018-08-22T16:40:43.572Z,61.22
2018-08-22T16:43:11.136Z,60.48
2018-08-22T16:45:44.772Z,61.11
2018-08-22T16:48:16.453Z,61.25
2018-08-22T16:50:43.988Z,60.39
2018-08-22T16:53:11.593Z,61.15
2018-08-22T16:55:39.251Z,60.26
2018-08-22T16:58:06.897Z,61.38
2018-08-22T17:00:40.205Z,60.35
2018-08-22T17:03:08.281Z,61.34
2018-08-22T17:05:35.797Z,60.57
2018-08-22T17:08:02.434Z,60.59
2018-08-22T17:10:33.928Z,61.19
2018-08-22T17:13:00.585Z,60.75
2018-08-22T17:15:27.267Z,61.25
2018-08-22T17:17:53.945Z,61.24
2018-08-22T17:20:21.457Z,61.19
2018-08-22T17:22:49.081Z,61.25
2018-08-22T17:25:16.802Z,61.27
2018-08-22T17:27:44.533Z,61.09
2018-08-22T17:30:11.196Z,60.97
2018-08-22T17:32:37.856Z,60.53
2018-08-22T17:35:04.501Z,60.37
2018-08-22T17:37:32.178Z,60.51
2018-08-22T17:39:58.812Z,60.39
2018-08-22T17:42:26.480Z,60.52
2018-08-22T17:44:53.112Z,61.21
2018-08-22T17:47:20.572Z,60.40
2018-08-22T17:49:52.973Z,61.29
2018-08-22T17:52:19.785Z,61.59
2018-08-22T17:54:46.433Z,61.14
2018-08-22T17:57:19.280Z,60.63
2018-08-22T17:59:47.279Z,60.70
2018-08-22T18:02:14.809Z,60.55
2018-08-22T18:04:47.176Z,61.39
2018-08-22T18:07:14.477Z,61.04
2018-08-22T18:09:41.146Z,60.97
2018-08-22T18:12:07.809Z,60.77
2018-08-22T18:14:34.449Z,61.19
2018-08-22T18:17:04.872Z,61.38
2018-08-22T18:19:32.990Z,60.70
2018-08-22T18:22:00.588Z,60.75
2018-08-22T18:24:28.261Z,61.07
2018-08-22T18:26:54.907Z,60.71
2018-08-22T18:29:21.551Z,60.57
2018-08-22T18:31:48.191Z,61.34
2018-08-22T18:34:16.817Z,61.30
2018-08-22T18:36:44.915Z,60.77
2018-08-22T18:39:15.461Z,60.74
2018-08-22T18:41:43.735Z,60.67
2018-08-22T18:44:11.341Z,61.46
2018-08-22T18:46:38.897Z,61.08
2018-08-22T18:49:06.025Z,61.41
2018-08-22T18:51:34.041Z,61.47
2018-08-22T18:54:02.117Z,60.86
2018-08-22T18:56:30.696Z,60.84
2018-08-22T18:58:57.387Z,61.63
2018-08-22T19:01:24.021Z,60.79
2018-08-22T19:03:50.680Z,60.65
2018-08-22T19:06:17.334Z,61.49
2018-08-22T19:08:44.537Z,60.81
2018-08-22T19:11:12.154Z,61.19
2018-08-22T19:13:39.688Z,61.52
2018-08-22T19:16:07.724Z,61.64
2018-08-22T19:18:34.451Z,60.74
2018-08-22T19:21:02.584Z,61.13
2018-08-22T19:23:30.360Z,61.56
2018-08-22T19:25:57.741Z,61.57
2018-08-22T19:28:24.393Z,61.41
2018-08-22T19:30:51.036Z,61.23
2018-08-22T19:33:19.910Z,60.77
2018-08-22T19:35:47.622Z,61.68
2018-08-22T19:38:14.758Z,61.22
2018-08-22T19:40:41.430Z,61.67
2018-08-22T19:43:08.909Z,61.48
2018-08-22T19:45:36.541Z,60.98
2018-08-22T19:48:04.260Z,61.75
2018-08-22T19:50:32.185Z,61.12
2018-08-22T19:52:59.661Z,61.75
2018-08-22T19:55:27.708Z,61.45
2018-08-22T19:57:54.456Z,61.50
2018-08-22T20:00:22.089Z,61.74
2018-08-22T20:02:49.777Z,61.76
2018-08-22T20:05:17.396Z,61.76
2018-08-22T20:07:44.977Z,61.12
2018-08-22T20:10:11.659Z,61.34
2018-08-22T20:12:39.617Z,60.96
2018-08-22T20:15:06.282Z,61.10
2018-08-22T20:17:32.932Z,61.53
2018-08-22T20:19:59.616Z,61.15
2018-08-22T20:22:32.788Z,61.72
2018-08-22T20:25:00.545Z,61.22
2018-08-22T20:27:27.184Z,61.37
2018-08-22T20:29:59.259Z,61.08
2018-08-22T20:32:29.544Z,61.80
2018-08-22T20:34:57.690Z,61.86
2018-08-22T20:37:24.354Z,61.78
2018-08-22T20:39:57.613Z,61.30
2018-08-22T20:42:24.260Z,61.90
2018-08-22T20:44:50.925Z,61.38
2018-08-22T20:47:18.528Z,61.03
2018-08-22T20:49:46.808Z,62.08
2018-08-22T20:52:14.601Z,61.11
2018-08-22T20:54:43.505Z,61.08
2018-08-22T20:57:10.760Z,62.00
2018-08-22T20:59:37.424Z,61.25
2018-08-22T21:02:05.687Z,61.95
2018-08-22T21:04:34.020Z,62.12
2018-08-22T21:07:00.654Z,61.38
2018-08-22T21:09:27.428Z,61.99
2018-08-22T21:11:56.658Z,61.24
2018-08-22T21:14:24.744Z,62.02
2018-08-22T21:16:52.334Z,61.38
2018-08-22T21:19:19.920Z,61.30
2018-08-22T21:21:47.348Z,62.06
2018-08-22T21:24:13.996Z,61.07
2018-08-22T21:26:44.137Z,61.31
2018-08-22T21:29:11.820Z,61.92
2018-08-22T21:31:39.364Z,60.99
2018-08-22T21:34:12.881Z,61.35
2018-08-22T21:36:43.878Z,61.28
2018-08-22T21:39:17.246Z,61.25
2018-08-22T21:41:44.741Z,61.54
2018-08-22T21:44:13.013Z,61.30
2018-08-22T21:46:39.717Z,61.95
2018-08-22T21:49:11.188Z,61.99
2018-08-22T21:51:38.844Z,61.60
2018-08-22T21:54:05.909Z,61.50
2018-08-22T21:56:33.364Z,61.37
2018-08-22T21:59:00.010Z,61.31
2018-08-22T22:01:32.247Z,61.32
2018-08-22T22:03:59.833Z,62.33
2018-08-22T22:06:27.352Z,62.03
2018-08-22T22:08:55.501Z,62.22
2018-08-22T22:11:23.025Z,61.56
2018-08-22T22:13:51.329Z,61.35
2018-08-22T22:16:19.804Z,62.42
2018-08-22T22:18:47.621Z,61.06
2018-08-22T22:21:16.146Z,61.82
2018-08-22T22:23:46.820Z,61.32
2018-08-22T22:26:16.077Z,61.40
2018-08-22T22:28:43.474Z,61.96
2018-08-22T22:31:12.714Z,62.17
2018-08-22T22:33:47.222Z,61.80
2018-08-22T22:36:16.660Z,61.73
2018-08-22T22:38:44.188Z,62.14
2018-08-22T22:41:10.856Z,61.24
2018-08-22T22:43:37.519Z,61.60
2018-08-22T22:46:04.425Z,62.16
2018-08-22T22:48:36.137Z,61.92
2018-08-22T22:51:02.769Z,61.91
2018-08-22T22:53:29.396Z,61.94
2018-08-22T22:55:56.028Z,61.94
2018-08-22T22:58:22.669Z,61.38
2018-08-22T23:00:49.325Z,61.09
2018-08-22T23:03:17.117Z,62.02
2018-08-22T23:05:44.401Z,61.35
2018-08-22T23:08:19.073Z,61.51
2018-08-22T23:10:47.442Z,61.65
2018-08-22T23:13:14.081Z,62.00
2018-08-22T23:15:41.588Z,62.36
2018-08-22T23:18:08.247Z,61.52
2018-08-22T23:20:37.839Z,62.52
2018-08-22T23:23:16.384Z,62.32
2018-08-22T23:25:44.700Z,61.95
2018-08-22T23:28:11.350Z,61.35
2018-08-22T23:30:38.020Z,61.40
2018-08-22T23:33:05.093Z,61.52
2018-08-22T23:35:33.923Z,61.91
2018-08-22T23:38:01.914Z,60.68
2018-08-22T23:40:29.807Z,61.33
2018-08-22T23:42:56.491Z,61.65
2018-08-22T23:45:23.312Z,62.13
2018-08-22T23:47:50.937Z,61.98
2018-08-22T23:50:18.545Z,61.72
2018-08-22T23:52:51.004Z,61.31
2018-08-22T23:55:19.917Z,62.27
2018-08-22T23:57:50.054Z,61.83
